createdAt,value
2023-01-02T00:00:21.282Z,3.33
2023-01-02T00:02:48.720Z,3.10
2023-01-02T00:05:15.511Z,3.70
2023-01-02T00:07:42.097Z,2.60
2023-01-02T00:10:10.177Z,3.07
2023-01-02T00:12:36.707Z,3.63
2023-01-02T00:15:04.487Z,4.17
2023-01-02T00:17:31.019Z,3.20
2023-01-02T00:19:57.741Z,4.10
2023-01-02T00:22:24.835Z,2.80
2023-01-02T00:24:51.347Z,3.20
2023-01-02T00:27:18.378Z,2.70
2023-01-02T00:29:44.937Z,2.70
2023-01-02T00:32:11.453Z,3.70
2023-01-02T00:34:37.994Z,3.80
2023-01-02T00:37:04.507Z,4.50
2023-01-02T00:39:31.027Z,4.93
2023-01-02T00:41:57.680Z,4.17
2023-01-02T00:44:24.216Z,3.93
2023-01-02T00:46:52.421Z,3.73
2023-01-02T00:49:19.296Z,3.00
2023-01-02T00:51:45.807Z,2.77
2023-01-02T00:54:12.314Z,3.60
2023-01-02T00:56:39.097Z,2.90
2023-01-02T00:59:05.604Z,3.30
2023-01-02T01:01:32.162Z,2.97
2023-01-02T01:03:58.761Z,3.47
2023-01-02T01:06:25.491Z,3.67
2023-01-02T01:08:52.020Z,4.30
2023-01-02T01:11:18.773Z,3.50
2023-01-02T01:13:45.671Z,4.00
2023-01-02T01:16:18.153Z,3.60
2023-01-02T01:18:46.079Z,3.47
2023-01-02T01:21:18.274Z,3.70
2023-01-02T01:23:49.027Z,3.17
2023-01-02T01:26:17.560Z,3.10
2023-01-02T01:28:44.132Z,3.60
2023-01-02T01:31:15.160Z,4.00
2023-01-02T01:33:43.058Z,4.53
2023-01-02T01:36:12.395Z,3.40
2023-01-02T01:38:39.298Z,3.50
2023-01-02T01:41:06.564Z,4.10
2023-01-02T01:43:40.553Z,3.80
2023-01-02T01:46:15.108Z,3.97
2023-01-02T01:48:41.910Z,4.37
2023-01-02T01:51:08.498Z,3.77
2023-01-02T01:53:35.574Z,3.80
2023-01-02T01:56:05.861Z,4.17
2023-01-02T01:58:37.865Z,3.70
2023-01-02T02:01:04.696Z,4.70
2023-01-02T02:03:34.984Z,4.30
2023-01-02T02:06:02.933Z,4.07
2023-01-02T02:08:48.150Z,4.40
2023-01-02T02:11:15.640Z,4.37
2023-01-02T02:13:42.446Z,5.10
2023-01-02T02:16:15.363Z,4.00
2023-01-02T02:18:49.037Z,5.03
2023-01-02T02:21:34.311Z,4.60
2023-01-02T02:24:01.105Z,4.73
2023-01-02T02:26:54.329Z,5.30
2023-01-02T02:29:42.501Z,5.00
2023-01-02T02:32:15.188Z,4.37
2023-01-02T02:35:04.455Z,3.50
2023-01-02T02:37:46.141Z,3.23
2023-01-02T02:40:41.486Z,3.70
2023-01-02T02:43:19.940Z,4.33
2023-01-02T02:46:05.988Z,3.17
2023-01-02T02:49:08.691Z,3.60
2023-01-02T02:51:42.708Z,3.40
2023-01-02T02:54:16.475Z,2.97
2023-01-02T02:56:44.154Z,4.10
2023-01-02T02:59:12.296Z,3.63
2023-01-02T03:01:39.121Z,3.77
2023-01-02T03:04:21.055Z,3.70
2023-01-02T03:07:02.635Z,3.67
2023-01-02T03:09:57.640Z,3.90
2023-01-02T03:12:55.190Z,3.77
2023-01-02T03:15:29.909Z,4.00
2023-01-02T03:18:29.868Z,3.80
2023-01-02T03:21:19.255Z,4.57
2023-01-02T03:23:49.328Z,3.80
2023-01-02T03:26:21.486Z,4.03
2023-01-02T03:28:55.527Z,4.30
2023-01-02T03:31:25.738Z,3.53
2023-01-02T03:33:58.835Z,3.47
2023-01-02T03:36:29.460Z,3.97
2023-01-02T03:39:09.055Z,3.70
2023-01-02T03:41:45.912Z,4.10
2023-01-02T03:44:15.396Z,4.10
2023-01-02T03:46:49.218Z,4.00
2023-01-02T03:49:23.889Z,4.03
2023-01-02T03:51:50.859Z,4.07
2023-01-02T03:54:18.579Z,3.90
2023-01-02T03:56:51.192Z,3.27
2023-01-02T03:59:38.769Z,4.00
2023-01-02T04:02:33.087Z,3.40
2023-01-02T04:05:09.873Z,3.50
2023-01-02T04:07:51.493Z,4.00
2023-01-02T04:10:19.237Z,4.50
2023-01-02T04:12:51.553Z,3.53
2023-01-02T04:15:22.423Z,3.20
2023-01-02T04:17:55.668Z,3.87
2023-01-02T04:20:28.366Z,2.73
2023-01-02T04:23:00.276Z,3.80
2023-01-02T04:25:33.471Z,4.07
2023-01-02T04:28:17.678Z,2.80
2023-01-02T04:30:49.791Z,2.93
2023-01-02T04:33:22.110Z,2.90
2023-01-02T04:35:48.776Z,3.00
2023-01-02T04:38:15.310Z,3.20
2023-01-02T04:40:42.028Z,3.10
2023-01-02T04:43:16.837Z,3.27
2023-01-02T04:45:43.365Z,2.93
2023-01-02T04:48:11.055Z,3.40
2023-01-02T04:50:37.573Z,4.27
2023-01-02T04:53:04.097Z,2.90
2023-01-02T04:55:30.650Z,4.50
2023-01-02T04:57:58.204Z,3.10
2023-01-02T05:00:24.876Z,4.00
2023-01-02T05:02:51.406Z,3.20
2023-01-02T05:05:17.939Z,3.10
2023-01-02T05:07:44.479Z,3.63
2023-01-02T05:10:10.998Z,3.30
2023-01-02T05:12:39.201Z,3.10
2023-01-02T05:15:09.132Z,2.83
2023-01-02T05:17:39.868Z,3.20
2023-01-02T05:20:08.862Z,3.47
2023-01-02T05:23:03.176Z,3.30
2023-01-02T05:25:35.376Z,3.77
2023-01-02T05:28:03.137Z,3.13
2023-01-02T05:30:30.132Z,3.57
2023-01-02T05:32:56.722Z,3.60
2023-01-02T05:35:28.535Z,2.90
2023-01-02T05:37:58.536Z,3.67
2023-01-02T05:40:26.112Z,3.40
2023-01-02T05:42:52.604Z,3.50
2023-01-02T05:45:19.383Z,3.87
2023-01-02T05:47:46.280Z,3.07
2023-01-02T05:50:12.780Z,3.53
2023-01-02T05:52:45.117Z,3.23
2023-01-02T05:55:12.613Z,3.03
2023-01-02T05:57:41.595Z,3.20
2023-01-02T06:00:08.657Z,3.07
2023-01-02T06:02:40.451Z,4.10
2023-01-02T06:05:09.897Z,2.83
2023-01-02T06:07:36.416Z,4.23
2023-01-02T06:10:03.006Z,3.70
2023-01-02T06:12:29.521Z,3.00
2023-01-02T06:14:56.040Z,3.13
2023-01-02T06:17:22.613Z,3.73
2023-01-02T06:19:53.984Z,3.37
2023-01-02T06:22:20.817Z,4.07
2023-01-02T06:24:47.369Z,3.70
2023-01-02T06:27:13.900Z,3.60
2023-01-02T06:29:40.436Z,3.93
2023-01-02T06:32:06.938Z,3.00
2023-01-02T06:34:33.885Z,4.00
2023-01-02T06:37:06.080Z,3.50
2023-01-02T06:39:35.924Z,3.70
2023-01-02T06:42:02.802Z,3.10
2023-01-02T06:44:29.753Z,3.47
2023-01-02T06:46:56.299Z,3.70
2023-01-02T06:49:23.314Z,3.00
2023-01-02T06:51:49.852Z,3.07
2023-01-02T06:54:16.435Z,3.20
2023-01-02T06:56:42.962Z,3.63
2023-01-02T06:59:10.083Z,3.30
2023-01-02T07:01:36.678Z,3.27
2023-01-02T07:04:03.333Z,3.17
2023-01-02T07:06:30.743Z,3.83
2023-01-02T07:08:57.295Z,3.63
2023-01-02T07:11:25.439Z,3.67
2023-01-02T07:13:54.206Z,3.30
2023-01-02T07:16:22.670Z,3.10
2023-01-02T07:18:49.718Z,3.17
2023-01-02T07:21:18.523Z,2.90
2023-01-02T07:23:45.459Z,2.90
2023-01-02T07:26:13.570Z,3.43
2023-01-02T07:28:40.271Z,3.80
2023-01-02T07:31:11.396Z,4.00
2023-01-02T07:33:38.403Z,3.47
2023-01-02T07:36:08.091Z,3.40
2023-01-02T07:38:38.089Z,2.93
2023-01-02T07:41:18.854Z,3.47
2023-01-02T07:43:46.565Z,3.70
2023-01-02T07:46:15.116Z,4.00
2023-01-02T07:48:41.714Z,3.77
2023-01-02T07:51:09.013Z,3.37
2023-01-02T07:53:36.057Z,3.73
2023-01-02T07:56:02.941Z,3.23
2023-01-02T07:58:29.944Z,3.40
2023-01-02T08:01:03.309Z,3.50
2023-01-02T08:03:32.236Z,3.13
2023-01-02T08:06:08.757Z,2.70
2023-01-02T08:08:36.147Z,3.20
2023-01-02T08:11:07.632Z,2.97
2023-01-02T08:13:34.238Z,3.17
2023-01-02T08:16:05.681Z,2.80
2023-01-02T08:18:32.481Z,2.37
2023-01-02T08:20:59.057Z,3.20
2023-01-02T08:23:25.794Z,2.73
2023-01-02T08:25:57.373Z,2.60
2023-01-02T08:28:24.388Z,2.60
2023-01-02T08:30:51.479Z,2.80
2023-01-02T08:33:18.719Z,2.17
2023-01-02T08:35:45.686Z,2.37
2023-01-02T08:38:12.681Z,2.50
2023-01-02T08:40:39.336Z,2.20
2023-01-02T08:43:09.658Z,2.27
2023-01-02T08:45:36.501Z,2.20
2023-01-02T08:48:20.750Z,3.20
2023-01-02T08:50:49.962Z,3.47
2023-01-02T08:53:16.967Z,2.33
2023-01-02T08:55:43.791Z,3.03
2023-01-02T08:58:10.860Z,3.13
2023-01-02T09:00:37.413Z,2.00
2023-01-02T09:03:04.182Z,2.67
2023-01-02T09:05:31.416Z,2.30
2023-01-02T09:07:58.525Z,2.50
2023-01-02T09:10:25.820Z,2.90
2023-01-02T09:12:53.093Z,2.30
2023-01-02T09:15:19.738Z,2.40
2023-01-02T09:17:46.293Z,2.30
2023-01-02T09:20:13.031Z,1.77
2023-01-02T09:22:40.570Z,1.90
2023-01-02T09:25:07.666Z,2.30
2023-01-02T09:27:34.254Z,2.03
2023-01-02T09:30:00.801Z,2.20
2023-01-02T09:32:27.579Z,2.00
2023-01-02T09:34:54.124Z,1.90
2023-01-02T09:37:20.659Z,2.00
2023-01-02T09:39:47.184Z,2.00
2023-01-02T09:42:16.981Z,1.47
2023-01-02T09:44:49.499Z,2.80
2023-01-02T09:47:22.447Z,2.07
2023-01-02T09:49:54.712Z,1.90
2023-01-02T09:52:38.276Z,3.03
2023-01-02T09:55:14.969Z,1.97
2023-01-02T09:57:46.152Z,2.37
2023-01-02T10:00:21.076Z,1.77
2023-01-02T10:02:51.624Z,2.27
2023-01-02T10:05:26.766Z,2.00
2023-01-02T10:08:09.817Z,2.03
2023-01-02T10:10:43.332Z,2.30
2023-01-02T10:13:59.889Z,2.30
2023-01-02T10:16:22.208Z,2.10
2023-01-02T10:18:52.468Z,2.17
2023-01-02T10:21:25.839Z,1.53
2023-01-02T10:24:00.173Z,2.10
2023-01-02T10:26:35.329Z,2.30
2023-01-02T10:29:16.858Z,2.00
2023-01-02T10:31:50.166Z,2.23
2023-01-02T10:34:19.472Z,1.70
2023-01-02T10:36:46.719Z,2.10
2023-01-02T10:39:19.465Z,1.90
2023-01-02T10:41:50.137Z,2.30
2023-01-02T10:44:26.713Z,2.20
2023-01-02T10:46:55.134Z,1.60
2023-01-02T10:49:24.033Z,1.97
2023-01-02T10:52:04.792Z,2.60
2023-01-02T10:54:31.437Z,2.30
2023-01-02T10:56:58.457Z,2.30
2023-01-02T10:59:28.100Z,2.57
2023-01-02T11:01:57.422Z,3.20
2023-01-02T11:04:26.726Z,2.83
2023-01-02T11:06:56.393Z,2.83
2023-01-02T11:09:28.889Z,2.50
2023-01-02T11:11:58.255Z,2.30
2023-01-02T11:14:33.677Z,2.47
2023-01-02T11:17:24.522Z,2.30
2023-01-02T11:19:54.597Z,1.93
2023-01-02T11:22:23.308Z,1.43
2023-01-02T11:25:00.716Z,2.13
2023-01-02T11:27:37.208Z,2.50
2023-01-02T11:30:06.526Z,2.80
2023-01-02T11:32:40.725Z,2.40
2023-01-02T11:35:37.946Z,1.90
2023-01-02T11:38:04.919Z,1.53
2023-01-02T11:40:33.177Z,1.30
2023-01-02T11:43:25.387Z,1.00
2023-01-02T11:45:52.973Z,1.00
2023-01-02T11:48:22.611Z,0.90
2023-01-02T11:50:50.291Z,0.93
2023-01-02T11:53:46.516Z,0.80
2023-01-02T11:56:21.887Z,0.80
2023-01-02T11:59:14.302Z,1.00
2023-01-02T12:01:52.392Z,1.20
2023-01-02T12:04:19.454Z,0.87
2023-01-02T12:06:53.309Z,1.23
2023-01-02T12:09:29.674Z,1.00
2023-01-02T12:12:05.483Z,1.23
2023-01-02T12:14:54.340Z,1.20
2023-01-02T12:17:29.371Z,1.00
2023-01-02T12:20:15.969Z,1.20
2023-01-02T12:22:48.737Z,1.90
2023-01-02T12:25:46.616Z,2.93
2023-01-02T12:28:28.299Z,3.30
2023-01-02T12:31:20.400Z,3.50
2023-01-02T12:34:07.767Z,3.80
2023-01-02T12:36:47.204Z,1.77
2023-01-02T12:39:50.153Z,1.33
2023-01-02T12:42:28.593Z,1.37
2023-01-02T12:44:57.614Z,1.23
2023-01-02T12:47:42.238Z,1.00
2023-01-02T12:50:25.747Z,0.80
2023-01-02T12:53:29.672Z,0.77
2023-01-02T12:56:19.080Z,0.80
2023-01-02T12:59:10.972Z,0.70
2023-01-02T13:01:51.463Z,0.60
2023-01-02T13:04:27.229Z,0.60
2023-01-02T13:07:05.144Z,0.70
2023-01-02T13:09:39.192Z,0.60
2023-01-02T13:12:14.628Z,0.60
2023-01-02T13:14:50.168Z,0.60
2023-01-02T13:17:36.066Z,0.80
2023-01-02T13:20:27.341Z,0.70
2023-01-02T13:23:08.214Z,0.60
2023-01-02T13:25:44.986Z,0.90
2023-01-02T13:28:13.493Z,0.60
2023-01-02T13:31:00.985Z,0.80
2023-01-02T13:33:40.967Z,0.80
2023-01-02T13:36:20.883Z,0.83
2023-01-02T13:38:52.869Z,1.10
2023-01-02T13:41:20.653Z,0.80
2023-01-02T13:43:53.492Z,0.80
2023-01-02T13:49:21.133Z,0.67
2023-01-02T13:51:47.817Z,1.10
2023-01-02T13:54:20.763Z,1.00
2023-01-02T13:57:17.520Z,0.80
2023-01-02T14:00:24.331Z,0.90
2023-01-02T14:03:22.919Z,0.70
2023-01-02T14:05:58.912Z,0.90
2023-01-02T14:08:37.871Z,0.60
2023-01-02T14:11:27.369Z,0.70
2023-01-02T14:13:55.680Z,0.90
2023-01-02T14:16:22.414Z,1.20
2023-01-02T14:19:13.941Z,1.10
2023-01-02T14:21:46.080Z,1.30
2023-01-02T14:24:28.746Z,1.10
2023-01-02T14:27:00.895Z,1.40
2023-01-02T14:29:29.467Z,1.10
2023-01-02T14:32:04.339Z,1.20
2023-01-02T14:34:33.195Z,0.93
2023-01-02T14:37:01.644Z,1.30
2023-01-02T14:39:33.791Z,1.40
2023-01-02T14:42:38.444Z,1.10
2023-01-02T14:45:09.222Z,1.17
2023-01-02T14:47:41.923Z,1.40
2023-01-02T14:50:23.059Z,1.40
2023-01-02T14:53:09.802Z,2.07
2023-01-02T14:55:42.320Z,2.33
2023-01-02T14:58:29.614Z,1.60
2023-01-02T15:01:04.225Z,1.80
2023-01-02T15:03:41.462Z,1.63
2023-01-02T15:06:19.443Z,1.00
2023-01-02T15:08:51.405Z,1.47
2023-01-02T15:11:43.902Z,1.10
2023-01-02T15:14:17.830Z,2.23
2023-01-02T15:16:56.263Z,1.70
2023-01-02T15:19:27.044Z,1.30
2023-01-02T15:21:54.068Z,1.23
2023-01-02T15:24:27.644Z,1.20
2023-01-02T15:26:54.252Z,1.20
2023-01-02T15:29:27.540Z,1.13
2023-01-02T15:31:56.407Z,1.17
2023-01-02T15:34:29.363Z,1.60
2023-01-02T15:37:00.732Z,1.73
2023-01-02T15:39:34.109Z,2.77
2023-01-02T15:42:08.134Z,3.87
2023-01-02T15:44:57.821Z,1.50
2023-01-02T15:47:28.184Z,1.90
2023-01-02T15:49:57.350Z,1.50
2023-01-02T15:52:28.787Z,5.63
2023-01-02T15:54:56.098Z,1.80
2023-01-02T15:57:29.404Z,5.90
2023-01-02T15:59:56.135Z,2.90
2023-01-02T16:02:33.655Z,1.50
2023-01-02T16:05:28.348Z,2.10
2023-01-02T16:07:57.569Z,1.20
2023-01-02T16:10:26.743Z,1.67
2023-01-02T16:13:36.792Z,1.90
2023-01-02T16:16:16.682Z,1.30
2023-01-02T16:18:53.272Z,1.97
2023-01-02T16:21:20.455Z,1.50
2023-01-02T16:23:52.228Z,1.67
2023-01-02T16:26:20.858Z,1.50
2023-01-02T16:28:50.997Z,1.57
2023-01-02T16:31:20.528Z,1.93
2023-01-02T16:33:47.859Z,1.97
2023-01-02T16:36:14.312Z,2.10
2023-01-02T16:38:49.771Z,2.23
2023-01-02T16:41:45.121Z,2.17
2023-01-02T16:44:14.666Z,1.90
2023-01-02T16:46:45.990Z,2.43
2023-01-02T16:49:23.246Z,2.27
2023-01-02T16:51:53.912Z,2.27
2023-01-02T16:54:20.647Z,2.40
2023-01-02T16:56:47.699Z,3.90
2023-01-02T16:59:14.223Z,2.63
2023-01-02T17:01:41.259Z,2.73
2023-01-02T17:04:08.211Z,3.40
2023-01-02T17:06:35.386Z,3.13
2023-01-02T17:09:01.924Z,2.40
2023-01-02T17:11:30.663Z,2.47
2023-01-02T17:13:57.734Z,2.80
2023-01-02T17:16:24.628Z,2.70
2023-01-02T17:18:51.236Z,2.60
2023-01-02T17:21:18.797Z,3.13
2023-01-02T17:23:45.438Z,3.20
2023-01-02T17:26:12.522Z,3.50
2023-01-02T17:28:39.109Z,3.77
2023-01-02T17:31:05.670Z,3.43
2023-01-02T17:33:32.191Z,3.57
2023-01-02T17:35:58.988Z,4.13
2023-01-02T17:38:25.922Z,4.97
2023-01-02T17:40:57.447Z,4.50
2023-01-02T17:43:25.471Z,4.77
2023-01-02T17:45:52.071Z,4.90
2023-01-02T17:48:23.879Z,5.83
2023-01-02T17:50:52.674Z,4.00
2023-01-02T17:53:19.201Z,4.60
2023-01-02T17:56:21.573Z,5.60
2023-01-02T17:58:39.771Z,5.67
2023-01-02T18:01:06.909Z,5.60
2023-01-02T18:03:34.067Z,4.80
2023-01-02T18:06:05.141Z,4.53
2023-01-02T18:08:32.411Z,5.07
2023-01-02T18:10:58.916Z,4.90
2023-01-02T18:13:28.192Z,4.50
2023-01-02T18:15:54.730Z,3.90
2023-01-02T18:18:24.037Z,5.23
2023-01-02T18:20:52.407Z,5.17
2023-01-02T18:23:19.341Z,4.43
2023-01-02T18:25:46.119Z,4.67
2023-01-02T18:28:26.440Z,5.00
2023-01-02T18:30:56.796Z,5.90
2023-01-02T18:33:25.973Z,4.63
2023-01-02T18:35:59.322Z,4.53
2023-01-02T18:38:34.656Z,4.27
2023-01-02T18:41:14.389Z,5.20
2023-01-02T18:43:41.936Z,5.00
2023-01-02T18:46:18.070Z,5.10
2023-01-02T18:48:46.043Z,5.13
2023-01-02T18:51:22.286Z,4.90
2023-01-02T18:53:54.096Z,4.43
2023-01-02T18:56:25.329Z,5.63
2023-01-02T18:59:03.233Z,5.73
2023-01-02T19:01:34.900Z,5.77
2023-01-02T19:04:24.382Z,6.17
2023-01-02T19:06:56.713Z,5.67
2023-01-02T19:09:30.071Z,5.87
2023-01-02T19:12:19.847Z,5.57
2023-01-02T19:14:47.391Z,6.10
2023-01-02T19:17:21.423Z,5.70
2023-01-02T19:19:48.846Z,5.70
2023-01-02T19:22:21.735Z,5.33
2023-01-02T19:24:48.539Z,5.23
2023-01-02T19:27:23.034Z,5.17
2023-01-02T19:29:50.158Z,4.70
2023-01-02T19:32:27.554Z,4.67
2023-01-02T19:35:02.694Z,4.50
2023-01-02T19:37:38.744Z,5.13
2023-01-02T19:40:34.804Z,4.73
2023-01-02T19:43:01.331Z,4.70
2023-01-02T19:45:29.282Z,4.57
2023-01-02T19:47:56.152Z,4.93
2023-01-02T19:50:26.156Z,4.73
2023-01-02T19:52:52.828Z,4.47
2023-01-02T19:55:19.669Z,3.97
2023-01-02T19:57:46.587Z,3.73
2023-01-02T20:00:15.186Z,4.30
2023-01-02T20:02:45.439Z,3.77
2023-01-02T20:05:19.223Z,3.67
2023-01-02T20:07:50.761Z,3.10
2023-01-02T20:10:17.734Z,3.53
2023-01-02T20:12:44.788Z,3.23
2023-01-02T20:15:19.468Z,3.00
2023-01-02T20:17:46.676Z,3.37
2023-01-02T20:20:19.281Z,3.30
2023-01-02T20:22:47.063Z,2.90
2023-01-02T20:25:15.315Z,3.40
2023-01-02T20:27:42.082Z,4.33
2023-01-02T20:30:09.692Z,3.77
2023-01-02T20:32:36.512Z,3.50
2023-01-02T20:35:03.860Z,3.90
2023-01-02T20:37:31.015Z,4.30
2023-01-02T20:39:57.810Z,3.43
2023-01-02T20:42:25.385Z,3.23
2023-01-02T20:44:53.750Z,4.03
2023-01-02T20:47:20.412Z,3.60
2023-01-02T20:49:47.506Z,3.63
2023-01-02T20:52:14.651Z,4.33
2023-01-02T20:54:41.187Z,4.20
2023-01-02T20:57:07.754Z,4.00
2023-01-02T20:59:34.286Z,4.30
2023-01-02T21:02:01.271Z,4.47
2023-01-02T21:04:36.279Z,4.40
2023-01-02T21:07:05.069Z,4.90
2023-01-02T21:09:32.528Z,5.53
2023-01-02T21:11:59.086Z,4.60
2023-01-02T21:14:25.575Z,5.43
2023-01-02T21:16:52.410Z,5.00
2023-01-02T21:19:18.934Z,4.10
2023-01-02T21:21:46.174Z,5.00
2023-01-02T21:24:13.345Z,4.20
2023-01-02T21:26:40.054Z,3.80
2023-01-02T21:29:06.601Z,3.80
2023-01-02T21:31:34.597Z,4.80
2023-01-02T21:34:01.518Z,4.07
2023-01-02T21:36:28.259Z,4.07
2023-01-02T21:38:55.459Z,4.10
2023-01-02T21:41:40.791Z,4.00
2023-01-02T21:44:07.817Z,4.80
2023-01-02T21:46:34.370Z,4.53
2023-01-02T21:49:00.979Z,5.47
2023-01-02T21:51:32.500Z,4.60
2023-01-02T21:53:59.885Z,4.97
2023-01-02T21:56:26.526Z,4.53
2023-01-02T21:58:54.967Z,4.13
2023-01-02T22:01:22.398Z,4.87
2023-01-02T22:03:49.079Z,6.23
2023-01-02T22:06:16.445Z,3.87
2023-01-02T22:08:43.204Z,3.80
2023-01-02T22:11:28.540Z,3.50
2023-01-02T22:13:55.038Z,4.27
2023-01-02T22:16:22.799Z,4.60
2023-01-02T22:18:50.583Z,3.80
2023-01-02T22:21:17.349Z,4.20
2023-01-02T22:23:44.012Z,3.90
2023-01-02T22:26:10.761Z,3.70
2023-01-02T22:28:37.705Z,4.17
2023-01-02T22:31:05.826Z,3.93
2023-01-02T22:33:33.820Z,4.27
2023-01-02T22:36:00.318Z,4.83
2023-01-02T22:38:26.910Z,4.43
2023-01-02T22:40:54.263Z,5.10
2023-01-02T22:43:24.624Z,4.80
2023-01-02T22:45:53.348Z,4.10
2023-01-02T22:48:33.441Z,5.30
2023-01-02T22:51:01.943Z,4.90
2023-01-02T22:53:32.455Z,5.37
2023-01-02T22:56:01.348Z,4.37
2023-01-02T22:58:28.090Z,5.10
2023-01-02T23:01:02.007Z,6.63
2023-01-02T23:03:31.390Z,4.90
2023-01-02T23:05:58.020Z,5.43
2023-01-02T23:08:24.966Z,5.33
2023-01-02T23:10:52.654Z,5.13
2023-01-02T23:13:19.168Z,4.80
2023-01-02T23:16:04.145Z,4.57
2023-01-02T23:18:56.239Z,5.37
2023-01-02T23:21:25.288Z,5.30
2023-01-02T23:23:52.603Z,5.07
2023-01-02T23:26:19.681Z,5.10
2023-01-02T23:31:34.874Z,5.30
2023-01-02T23:34:01.495Z,4.40
2023-01-02T23:36:28.088Z,4.50
2023-01-02T23:38:54.619Z,4.50
2023-01-02T23:41:21.158Z,4.90
2023-01-02T23:43:47.905Z,5.13
2023-01-02T23:46:14.619Z,4.87
2023-01-02T23:48:41.159Z,5.13
2023-01-02T23:51:07.665Z,4.30
2023-01-02T23:53:34.488Z,6.23
2023-01-02T23:56:01.227Z,4.67
2023-01-02T23:58:27.958Z,5.20
